Time;durP1;ratioP1;P1;durP2;ratioP2;P2;SDS_P1;SDS_P2;PMS_P1;PMS_P2;Temp;Humidity;BMP_temperature;BMP_pressure;BME280_temperature;BME280_humidity;BME280_pressure;Samples;Min_cycle;Max_cycle;Signal;HPM_P1;HPM_P2
2023/09/17 00:00:58;;;;;;;47.13;33.50;;;;;;;19.33;97.11;98177.94;10405875;28;20056;-52
2023/09/17 00:05:57;;;;;;;48.42;33.85;;;;;;;19.43;97.02;98179.34;10408763;28;20124;-55
2023/09/17 00:10:56;;;;;;;39.63;29.70;;;;;;;19.42;96.38;98182.91;10416619;28;20111;-52
2023/09/17 00:15:55;;;;;;;44.90;31.20;;;;;;;19.03;95.62;98125.28;10417402;28;20738;-53
2023/09/17 00:20:54;;;;;;;47.50;32.15;;;;;;;19.04;95.23;98131.41;10417203;28;20060;-52
2023/09/17 00:25:53;;;;;;;48.88;34.08;;;;;;;19.09;95.34;98152.31;10417185;28;20028;-53
2023/09/17 00:30:52;;;;;;;51.20;36.17;;;;;;;18.73;95.32;98105.13;10415714;28;20044;-53
2023/09/17 00:35:51;;;;;;;50.08;35.58;;;;;;;18.89;95.34;98142.38;10414538;28;20119;-52
2023/09/17 00:40:50;;;;;;;49.45;34.47;;;;;;;18.88;95.70;98141.53;10413415;28;20668;-56
2023/09/17 00:45:48;;;;;;;57.78;37.65;;;;;;;18.78;96.12;98126.91;10415067;28;20025;-57
2023/09/17 00:50:48;;;;;;;59.08;38.83;;;;;;;18.86;96.51;98126.69;10415521;28;20032;-57
2023/09/17 00:55:47;;;;;;;57.20;37.83;;;;;;;18.74;97.05;98128.75;10415221;28;20587;-54
2023/09/17 01:00:46;;;;;;;57.20;36.08;;;;;;;18.68;97.73;98122.78;10414969;28;20074;-55
2023/09/17 01:05:46;;;;;;;54.47;36.28;;;;;;;18.64;98.11;98118.50;10413405;28;20696;-54
2023/09/17 01:10:48;;;;;;;54.50;35.22;;;;;;;18.70;98.13;98116.59;10417358;28;20064;-54
2023/09/17 01:15:47;;;;;;;47.42;33.78;;;;;;;18.46;98.43;98076.06;10414906;28;20074;-55
2023/09/17 01:21:05;;;;;;;49.92;35.58;;;;;;;18.62;98.95;98113.31;10415810;28;20120;-54
2023/09/17 01:26:15;;;;;;;57.63;35.53;;;;;;;18.54;98.66;98105.59;10416658;28;20056;-54
2023/09/17 01:31:15;;;;;;;46.60;33.47;;;;;;;18.48;99.10;98099.66;10417869;28;20467;-54
2023/09/17 01:36:21;;;;;;;46.90;32.25;;;;;;;18.42;99.12;98092.81;10415112;28;20052;-54
2023/09/17 01:41:21;;;;;;;45.33;31.65;;;;;;;18.10;99.34;98070.88;10417852;28;20060;-54
2023/09/17 01:46:22;;;;;;;43.65;28.60;;;;;;;17.89;100.00;98089.81;10418588;28;20055;-54
2023/09/17 01:51:21;;;;;;;40.05;28.77;;;;;;;17.88;100.00;98103.84;10416557;28;20060;-54
2023/09/17 01:56:21;;;;;;;41.33;30.13;;;;;;;17.82;100.00;98104.00;10416552;28;20021;-54
2023/09/17 02:01:20;;;;;;;36.25;28.23;;;;;;;17.58;100.00;98068.69;10414802;28;20048;-54
2023/09/17 02:06:18;;;;;;;35.67;27.67;;;;;;;17.68;100.00;98105.19;10410412;28;20081;-54
2023/09/17 02:11:17;;;;;;;45.33;29.80;;;;;;;17.77;100.00;98097.09;10412164;28;20029;-54
2023/09/17 02:16:16;;;;;;;39.58;31.00;;;;;;;17.58;100.00;98069.53;10412850;28;20384;-54
2023/09/17 02:21:15;;;;;;;42.90;30.33;;;;;;;17.84;100.00;98112.69;10409916;28;20042;-54
2023/09/17 02:26:15;;;;;;;44.17;30.40;;;;;;;17.80;100.00;98116.28;10406612;28;20031;-54
2023/09/17 02:31:14;;;;;;;42.90;31.23;;;;;;;17.76;100.00;98108.50;10409410;28;20877;-54
2023/09/17 02:36:13;;;;;;;46.25;33.40;;;;;;;17.74;100.00;98078.78;10409055;28;20388;-54
2023/09/17 02:41:12;;;;;;;44.95;33.08;;;;;;;17.91;100.00;98082.78;10409486;28;20056;-54
2023/09/17 02:46:11;;;;;;;50.05;35.67;;;;;;;17.94;100.00;98094.06;10410469;28;20115;-54
2023/09/17 02:51:10;;;;;;;50.05;35.28;;;;;;;17.76;100.00;98065.63;10406081;28;20028;-54
2023/09/17 02:56:09;;;;;;;52.40;35.75;;;;;;;18.12;100.00;98097.13;10409873;28;20119;-54
2023/09/17 03:01:18;;;;;;;52.45;37.58;;;;;;;17.99;100.00;98059.81;10408209;28;20885;-54
2023/09/17 03:06:16;;;;;;;51.33;35.10;;;;;;;18.22;100.00;98089.84;10409084;28;20055;-56
2023/09/17 03:11:17;;;;;;;51.50;34.90;;;;;;;18.18;100.00;98068.06;10408240;28;20107;-55
2023/09/17 03:16:17;;;;;;;47.67;35.20;;;;;;;18.30;100.00;98080.03;10408331;28;20060;-56
2023/09/17 03:21:16;;;;;;;50.55;34.83;;;;;;;18.17;100.00;98089.97;10408390;28;20067;-55
2023/09/17 03:26:15;;;;;;;43.80;32.22;;;;;;;18.30;100.00;98082.66;10408186;28;20448;-54
2023/09/17 03:31:14;;;;;;;45.20;33.17;;;;;;;18.34;100.00;98079.03;10408265;28;20482;-56
2023/09/17 03:36:13;;;;;;;43.08;30.33;;;;;;;18.06;98.89;98022.00;10407855;28;20032;-53
2023/09/17 03:41:12;;;;;;;46.30;29.88;;;;;;;18.33;98.89;98086.03;10406103;28;20051;-56
2023/09/17 03:46:11;;;;;;;51.20;34.22;;;;;;;18.23;98.53;98068.81;10405739;28;20033;-55
2023/09/17 03:51:10;;;;;;;49.58;33.17;;;;;;;18.08;98.70;98062.22;10406241;28;20056;-55
2023/09/17 03:56:11;;;;;;;50.40;34.58;;;;;;;18.01;99.36;98073.78;10407095;28;20086;-55
2023/09/17 04:01:10;;;;;;;45.38;31.48;;;;;;;18.22;99.27;98095.97;10405114;28;20060;-53
2023/09/17 04:06:09;;;;;;;44.20;33.53;;;;;;;18.27;98.44;98103.72;10404222;28;20066;-53
2023/09/17 04:11:15;;;;;;;48.33;34.15;;;;;;;18.17;99.29;98100.47;10404901;28;20133;-53
2023/09/17 04:16:15;;;;;;;44.45;33.10;;;;;;;18.22;98.93;98105.63;10404412;28;20952;-53
2023/09/17 04:21:14;;;;;;;42.65;31.67;;;;;;;18.25;98.69;98101.16;10406960;28;20083;-53
2023/09/17 04:26:14;;;;;;;39.85;31.75;;;;;;;18.31;98.76;98098.34;10403442;28;20012;-53
2023/09/17 04:31:13;;;;;;;40.33;30.95;;;;;;;18.35;98.64;98109.66;10405188;28;20540;-54
2023/09/17 04:36:12;;;;;;;47.15;33.78;;;;;;;18.32;98.43;98115.84;10405658;28;20055;-54
2023/09/17 04:41:11;;;;;;;39.53;30.35;;;;;;;18.31;97.91;98115.88;10403605;28;20067;-55
2023/09/17 04:46:10;;;;;;;39.40;32.15;;;;;;;18.35;98.32;98115.75;10405033;28;20064;-54
2023/09/17 04:51:12;;;;;;;38.50;30.63;;;;;;;18.40;98.08;98123.53;10404431;28;20039;-54
2023/09/17 04:56:11;;;;;;;38.05;30.27;;;;;;;18.25;98.06;98121.31;10411357;28;20107;-54
2023/09/17 05:01:12;;;;;;;37.22;28.23;;;;;;;18.19;98.36;98124.94;10411891;28;20031;-53
2023/09/17 05:06:11;;;;;;;33.67;28.40;;;;;;;18.33;98.76;98129.84;10413447;28;20048;-52
2023/09/17 05:11:10;;;;;;;43.72;29.83;;;;;;;18.29;97.90;98094.94;10407482;28;20063;-52
2023/09/17 05:16:09;;;;;;;39.95;29.40;;;;;;;18.61;97.84;98128.19;10410558;28;20124;-53
2023/09/17 05:21:08;;;;;;;36.38;28.77;;;;;;;18.79;96.85;98126.00;10408809;28;20056;-52
2023/09/17 05:26:08;;;;;;;36.17;28.08;;;;;;;18.86;96.00;98122.28;10409026;28;20135;-53
2023/09/17 05:31:07;;;;;;;32.25;27.45;;;;;;;19.01;96.24;98116.56;10409288;28;20135;-54
2023/09/17 05:36:07;;;;;;;33.10;28.52;;;;;;;19.03;95.80;98106.88;10410257;28;20422;-55
2023/09/17 05:41:06;;;;;;;36.47;26.90;;;;;;;19.29;95.22;98120.16;10408946;28;20056;-52
2023/09/17 05:46:05;;;;;;;33.05;26.95;;;;;;;19.29;94.63;98094.72;10410950;28;20029;-53
2023/09/17 05:51:04;;;;;;;30.70;24.90;;;;;;;19.53;92.76;98116.75;10410003;28;20115;-54
2023/09/17 05:56:04;;;;;;;28.08;22.98;;;;;;;19.37;91.83;98081.31;10409537;28;20111;-54
2023/09/17 06:01:04;;;;;;;27.42;22.38;;;;;;;19.83;91.10;98114.09;10406339;28;20731;-54
2023/09/17 06:06:04;;;;;;;26.15;21.65;;;;;;;20.03;89.66;98110.81;10405481;28;20842;-54
2023/09/17 06:11:03;;;;;;;22.55;18.70;;;;;;;19.53;87.58;97987.78;10407437;28;20108;-54
2023/09/17 06:16:02;;;;;;;22.63;17.90;;;;;;;20.57;85.73;98128.31;10412418;28;20527;-54
2023/09/17 06:21:01;;;;;;;24.33;19.85;;;;;;;20.80;84.35;98105.53;10412141;28;20078;-56
2023/09/17 06:26:00;;;;;;;26.05;19.52;;;;;;;20.91;83.88;98117.41;10412264;28;20056;-56
2023/09/17 06:31:01;;;;;;;26.73;18.75;;;;;;;20.76;83.81;98103.94;10411751;28;20115;-55
2023/09/17 06:36:01;;;;;;;23.60;20.05;;;;;;;20.83;84.17;98137.06;10412469;28;20048;-54
2023/09/17 06:40:59;;;;;;;24.98;20.52;;;;;;;20.94;84.12;98140.19;10409590;28;20448;-55
2023/09/17 06:46:00;;;;;;;26.73;22.10;;;;;;;20.84;85.46;98129.09;10412794;28;20440;-54
2023/09/17 06:50:59;;;;;;;25.50;20.45;;;;;;;21.10;85.38;98138.69;10410178;28;20399;-57
2023/09/17 06:55:58;;;;;;;31.38;26.35;;;;;;;21.39;83.71;98135.91;10411285;28;20036;-53
2023/09/17 07:00:57;;;;;;;20.80;17.25;;;;;;;21.79;81.35;98132.53;10409873;28;20551;-53
2023/09/17 07:05:56;;;;;;;17.42;15.02;;;;;;;22.10;76.67;98118.94;10409630;28;20650;-56
2023/09/17 07:10:55;;;;;;;19.67;14.75;;;;;;;22.63;73.69;98140.53;10409223;28;20064;-55
2023/09/17 07:15:54;;;;;;;18.77;16.75;;;;;;;22.02;70.23;97951.94;10405257;28;20055;-55
2023/09/17 07:20:53;;;;;;;21.83;17.25;;;;;;;23.32;68.36;98105.66;10402195;28;20094;-56
2023/09/17 07:25:52;;;;;;;18.65;16.35;;;;;;;23.65;68.01;98137.66;10406346;28;20039;-54
2023/09/17 07:30:55;;;;;;;19.25;13.48;;;;;;;23.76;66.42;98130.06;10405340;28;20170;-56
2023/09/17 07:35:54;;;;;;;14.52;12.80;;;;;;;23.93;65.35;98150.44;10407319;28;20131;-54
2023/09/17 07:40:54;;;;;;;17.17;13.45;;;;;;;24.11;64.04;98143.38;10405716;28;20519;-54
2023/09/17 07:45:53;;;;;;;18.20;14.05;;;;;;;24.23;63.59;98157.84;10403962;28;20814;-54
2023/09/17 07:51:00;;;;;;;15.00;12.57;;;;;;;24.40;64.32;98152.56;10405951;28;20108;-55
2023/09/17 07:55:59;;;;;;;13.10;11.10;;;;;;;24.67;61.79;98147.63;10404714;28;20068;-54
2023/09/17 08:00:58;;;;;;;13.77;11.10;;;;;;;25.02;60.33;98146.75;10404740;28;20107;-55
2023/09/17 08:05:57;;;;;;;11.88;10.15;;;;;;;25.13;58.14;98143.47;10405513;28;20044;-55
2023/09/17 08:10:56;;;;;;;13.05;10.57;;;;;;;25.36;57.27;98148.41;10406199;28;20039;-55
2023/09/17 08:15:55;;;;;;;14.13;11.10;;;;;;;25.63;56.94;98137.22;10400832;28;20432;-55
2023/09/17 08:20:54;;;;;;;15.07;12.48;;;;;;;25.80;55.89;98137.13;10404216;28;20413;-55
2023/09/17 08:25:53;;;;;;;14.75;13.15;;;;;;;25.74;54.36;98135.69;10408126;28;20120;-55
2023/09/17 08:30:51;;;;;;;14.02;11.25;;;;;;;25.80;54.56;98137.13;10413826;28;20031;-55
2023/09/17 08:35:51;;;;;;;13.90;10.77;;;;;;;25.31;52.13;98089.34;10414049;28;20037;-55
2023/09/17 08:40:50;;;;;;;11.02;9.90;;;;;;;25.83;51.13;98133.44;10409066;28;20067;-55
2023/09/17 08:45:50;;;;;;;15.10;10.82;;;;;;;25.90;47.72;98118.84;10412977;28;20055;-55
2023/09/17 08:50:51;;;;;;;12.10;9.90;;;;;;;26.03;47.36;98135.81;10412828;28;20094;-54
2023/09/17 08:55:54;;;;;;;15.63;10.68;;;;;;;26.16;47.96;98120.00;10413753;28;20075;-55
2023/09/17 09:00:57;;;;;;;11.60;9.52;;;;;;;26.36;46.20;98122.34;10411444;28;20499;-55
2023/09/17 09:05:57;;;;;;;10.85;9.13;;;;;;;26.54;43.88;98108.91;10412294;28;20068;-55
2023/09/17 09:10:56;;;;;;;12.10;10.60;;;;;;;26.84;43.92;98123.97;10413876;28;20708;-55
2023/09/17 09:15:56;;;;;;;12.15;10.48;;;;;;;26.91;44.31;98118.22;10415076;28;20067;-55
2023/09/17 09:20:55;;;;;;;13.93;10.23;;;;;;;26.75;44.47;98096.94;10415338;28;20094;-55
2023/09/17 09:25:54;;;;;;;12.43;9.68;;;;;;;26.46;44.35;98069.44;10414257;28;20127;-54
2023/09/17 09:30:53;;;;;;;10.73;9.30;;;;;;;26.50;43.64;98080.75;10413046;28;20039;-55
2023/09/17 09:35:54;;;;;;;10.20;9.10;;;;;;;27.07;43.88;98110.09;10414625;28;20040;-54
2023/09/17 09:40:54;;;;;;;11.13;9.60;;;;;;;27.55;42.62;98101.78;10411435;28;20052;-54
2023/09/17 09:45:53;;;;;;;13.88;8.50;;;;;;;27.54;42.34;98100.06;10412385;28;20067;-55
2023/09/17 09:50:52;;;;;;;13.50;8.70;;;;;;;27.54;42.04;98105.38;10411552;28;20028;-54
2023/09/17 09:55:51;;;;;;;12.40;8.93;;;;;;;27.64;42.35;98093.19;10412686;28;20040;-54
2023/09/17 10:00:52;;;;;;;11.23;9.15;;;;;;;27.82;42.16;98096.44;10413140;28;20477;-55
2023/09/17 10:05:51;;;;;;;10.85;8.80;;;;;;;28.07;42.00;98097.50;10412890;28;20079;-54
2023/09/17 10:10:50;;;;;;;11.93;8.63;;;;;;;28.15;40.94;98100.53;10405037;28;20028;-56
2023/09/17 10:15:49;;;;;;;11.82;8.20;;;;;;;28.13;39.84;98102.47;10398909;28;20129;-58
2023/09/17 10:20:51;;;;;;;11.80;7.72;;;;;;;27.72;40.32;98092.69;10408044;28;20115;-60
2023/09/17 10:25:52;;;;;;;11.82;7.68;;;;;;;27.92;40.40;98078.03;10398092;28;20867;-53
2023/09/17 10:30:52;;;;;;;10.23;8.18;;;;;;;28.21;40.44;98100.97;10408411;28;20463;-53
2023/09/17 10:35:51;;;;;;;12.52;8.25;;;;;;;28.51;39.37;98085.66;10407811;28;20120;-54
2023/09/17 10:40:50;;;;;;;14.23;10.95;;;;;;;28.62;40.97;98065.25;10408811;28;20132;-55
2023/09/17 10:45:51;;;;;;;13.35;9.60;;;;;;;28.40;41.88;98062.34;10409541;28;20067;-56
2023/09/17 10:50:50;;;;;;;11.32;9.90;;;;;;;28.18;42.81;98081.66;10407772;28;20056;-53
2023/09/17 10:56:10;;;;;;;13.43;10.10;;;;;;;28.24;42.13;98081.22;10408365;28;20086;-54
2023/09/17 11:01:15;;;;;;;11.90;9.52;;;;;;;27.81;42.60;98055.59;10405445;28;20496;-56
2023/09/17 11:06:23;;;;;;;13.38;10.02;;;;;;;27.57;43.32;98083.88;10389316;28;20052;-54
2023/09/17 11:11:24;;;;;;;11.35;8.95;;;;;;;26.82;45.03;97990.94;10365719;28;20604;-56
2023/09/17 11:16:26;;;;;;;11.90;9.52;;;;;;;26.81;46.04;98082.41;10366941;28;20076;-56
2023/09/17 11:21:27;;;;;;;12.45;9.68;;;;;;;26.29;46.85;98086.44;10365469;28;20064;-55
2023/09/17 11:26:27;;;;;;;12.43;11.13;;;;;;;26.41;48.07;98082.16;10364423;28;20076;-55
2023/09/17 11:31:26;;;;;;;14.60;11.00;;;;;;;26.50;47.32;98060.31;10366762;28;20053;-56
2023/09/17 11:36:26;;;;;;;17.67;14.88;;;;;;;26.68;49.00;98078.78;10365954;28;20488;-55
2023/09/17 11:41:30;;;;;;;15.13;13.48;;;;;;;26.67;49.51;98066.41;10365788;28;20707;-55
2023/09/17 11:46:30;;;;;;;14.18;11.85;;;;;;;26.52;48.57;98058.44;10365650;28;20060;-55
2023/09/17 11:51:32;;;;;;;14.98;11.68;;;;;;;26.35;49.58;98071.91;10365764;28;20120;-55
2023/09/17 11:56:33;;;;;;;13.60;12.20;;;;;;;26.08;50.77;98069.06;10364600;28;20470;-55
2023/09/17 12:01:36;;;;;;;15.13;13.57;;;;;;;25.94;51.39;98076.03;10373615;28;20135;-54
2023/09/17 12:06:41;;;;;;;16.05;13.75;;;;;;;25.77;52.26;98084.13;10374228;28;20871;-55
2023/09/17 12:11:40;;;;;;;15.70;13.98;;;;;;;25.68;53.01;98079.34;10371280;28;20099;-56
2023/09/17 12:16:39;;;;;;;16.60;13.18;;;;;;;25.54;53.94;98096.09;10373912;28;20523;-55
2023/09/17 12:21:39;;;;;;;30.80;17.85;;;;;;;25.19;63.94;98106.84;10373228;28;20063;-54
2023/09/17 14:04:04;;;;;;;24.60;21.88;;;;;;;23.15;81.11;98109.94;10282542;28;20125;-52
2023/09/17 14:09:03;;;;;;;24.23;20.40;;;;;;;23.04;81.12;98114.03;10280075;28;20125;-51
2023/09/17 14:14:03;;;;;;;27.65;20.13;;;;;;;23.01;80.88;98109.72;10283938;28;20033;-51
2023/09/17 14:19:02;;;;;;;22.55;19.55;;;;;;;22.95;80.37;98118.81;10282698;28;20584;-51
2023/09/17 14:24:01;;;;;;;21.95;19.63;;;;;;;22.88;81.51;98121.78;10281813;28;20133;-50
2023/09/17 14:29:00;;;;;;;22.40;19.95;;;;;;;22.92;81.80;98112.81;10282050;28;20108;-53
2023/09/17 14:33:59;;;;;;;23.88;19.98;;;;;;;22.99;81.16;98119.53;10264056;28;20037;-52
2023/09/17 14:38:58;;;;;;;22.15;19.88;;;;;;;22.98;81.01;98117.81;10281270;28;20448;-51
2023/09/17 14:43:57;;;;;;;23.70;20.77;;;;;;;22.98;80.98;98116.03;10280726;28;20040;-51
2023/09/17 14:48:55;;;;;;;26.38;23.20;;;;;;;23.07;81.02;98130.66;10282402;28;20060;-52
2023/09/17 14:53:54;;;;;;;24.52;21.98;;;;;;;23.04;79.56;98144.00;10280831;28;20072;-52
2023/09/17 14:58:53;;;;;;;24.92;21.15;;;;;;;22.73;80.72;98152.41;10281430;28;20034;-52
2023/09/17 15:03:52;;;;;;;28.20;23.30;;;;;;;22.52;81.04;98151.56;10282273;28;20042;-52
2023/09/17 15:08:51;;;;;;;30.73;26.65;;;;;;;22.11;82.76;98149.75;10261639;28;20034;-52
2023/09/17 15:13:50;;;;;;;22.70;18.27;;;;;;;22.11;81.36;98162.13;10280599;28;20018;-52
2023/09/17 15:18:49;;;;;;;18.10;13.43;;;;;;;21.79;80.24;98172.16;10281102;28;20117;-51
2023/09/17 15:23:48;;;;;;;17.38;13.80;;;;;;;21.50;82.36;98168.00;10281525;28;20136;-52
2023/09/17 15:28:49;;;;;;;14.93;12.52;;;;;;;21.12;81.39;98157.09;10279886;28;20519;-51
2023/09/17 15:33:50;;;;;;;14.48;12.68;;;;;;;20.74;81.36;98142.69;10279477;28;20123;-52
2023/09/17 15:38:49;;;;;;;17.10;13.77;;;;;;;20.54;83.26;98146.88;10279341;28;20061;-52
2023/09/17 15:43:48;;;;;;;15.70;12.73;;;;;;;20.28;84.95;98167.06;10279311;28;20108;-51
2023/09/17 15:48:47;;;;;;;17.25;12.63;;;;;;;20.06;85.88;98171.31;10280549;28;20030;-52
2023/09/17 15:53:46;;;;;;;19.67;13.00;;;;;;;19.85;87.17;98167.59;10279341;28;20038;-52
2023/09/17 15:58:45;;;;;;;15.27;12.77;;;;;;;19.78;87.49;98180.09;10277634;28;20369;-52
2023/09/17 16:03:44;;;;;;;18.48;13.35;;;;;;;19.86;88.37;98171.94;10279323;28;20052;-52
2023/09/17 16:08:43;;;;;;;19.23;14.43;;;;;;;19.96;88.76;98169.91;10279239;28;20104;-52
2023/09/17 16:13:43;;;;;;;17.45;13.00;;;;;;;19.76;88.13;98134.50;10279215;28;20125;-52
2023/09/17 16:18:42;;;;;;;23.85;14.35;;;;;;;19.97;88.45;98172.47;10277897;28;20133;-53
2023/09/17 16:23:41;;;;;;;19.13;14.93;;;;;;;19.90;88.84;98176.19;10278709;28;20128;-52
2023/09/17 16:28:40;;;;;;;19.10;14.75;;;;;;;19.70;89.76;98170.69;10279278;28;20024;-54
2023/09/17 16:33:39;;;;;;;25.65;19.10;;;;;;;19.24;91.15;98101.88;10279997;28;20132;-53
2023/09/17 16:38:38;;;;;;;24.25;17.65;;;;;;;19.54;91.48;98172.94;10279551;28;20451;-51
2023/09/17 16:43:37;;;;;;;26.17;17.88;;;;;;;19.45;90.85;98174.91;10278342;28;20452;-51
2023/09/17 16:48:36;;;;;;;23.13;15.60;;;;;;;19.31;91.46;98177.09;10282376;28;20526;-52
2023/09/17 16:53:35;;;;;;;18.50;14.27;;;;;;;19.06;93.40;98181.34;10286662;28;20105;-52
2023/09/17 16:58:34;;;;;;;17.85;12.75;;;;;;;18.55;95.73;98190.56;10266487;28;20576;-51
2023/09/17 17:03:33;;;;;;;17.60;13.70;;;;;;;18.64;95.42;98190.34;10285963;28;20564;-51
2023/09/17 17:08:32;;;;;;;19.88;15.35;;;;;;;18.71;94.81;98186.66;10285695;28;20467;-52
2023/09/17 17:13:31;;;;;;;21.08;15.20;;;;;;;18.78;94.47;98193.50;10284838;28;20451;-51
2023/09/17 17:18:30;;;;;;;21.45;15.65;;;;;;;18.84;94.39;98189.84;10283551;28;20077;-51
2023/09/17 17:23:30;;;;;;;22.27;16.75;;;;;;;18.89;94.27;98193.19;10285752;28;20572;-52
2023/09/17 17:28:29;;;;;;;26.70;17.27;;;;;;;18.98;94.26;98200.84;10284945;28;20124;-53
2023/09/17 17:33:28;;;;;;;24.73;18.80;;;;;;;19.03;94.16;98205.97;10284404;28;20113;-51
2023/09/17 17:38:27;;;;;;;26.75;18.27;;;;;;;19.07;94.22;98210.25;10284327;28;20111;-51
2023/09/17 17:43:26;;;;;;;31.38;21.73;;;;;;;18.81;94.06;98168.91;10284207;28;20034;-53
2023/09/17 17:48:26;;;;;;;36.28;24.50;;;;;;;19.13;94.19;98222.34;10284169;28;20038;-52
2023/09/17 17:53:25;;;;;;;41.58;28.15;;;;;;;19.12;94.56;98231.16;10283557;28;20128;-52
2023/09/17 17:58:24;;;;;;;52.25;32.63;;;;;;;19.07;94.47;98225.19;10282237;28;20073;-49
2023/09/17 18:03:23;;;;;;;50.45;34.40;;;;;;;19.02;94.70;98227.94;10283752;28;20138;-51
2023/09/17 18:08:23;;;;;;;47.00;31.17;;;;;;;19.02;95.20;98231.41;10283083;28;20022;-51
2023/09/17 18:13:22;;;;;;;43.00;28.00;;;;;;;19.01;95.01;98234.09;10265242;28;20468;-53
2023/09/17 18:18:20;;;;;;;42.97;27.23;;;;;;;18.97;95.18;98225.44;10281360;28;20440;-51
2023/09/17 18:23:20;;;;;;;36.28;25.75;;;;;;;18.91;95.14;98238.72;10282688;28;20038;-53
2023/09/17 18:28:19;;;;;;;38.63;25.92;;;;;;;18.90;94.90;98231.75;10281744;28;20453;-53
2023/09/17 18:33:18;;;;;;;38.67;26.50;;;;;;;18.91;94.95;98230.00;10282567;28;20531;-52
2023/09/17 18:38:17;;;;;;;42.22;27.00;;;;;;;18.87;94.80;98225.72;10282251;28;20108;-51
2023/09/17 18:43:16;;;;;;;44.88;27.52;;;;;;;18.87;94.73;98218.66;10281195;28;20049;-51
2023/09/17 18:48:15;;;;;;;42.67;26.70;;;;;;;18.77;94.56;98220.69;10281116;28;20417;-52
2023/09/17 18:53:14;;;;;;;40.70;27.15;;;;;;;18.72;95.16;98213.84;10282385;28;20033;-51
2023/09/17 18:58:12;;;;;;;44.20;25.98;;;;;;;18.69;95.48;98219.16;10279483;28;20068;-54
2023/09/17 19:03:11;;;;;;;39.22;24.52;;;;;;;18.64;95.30;98210.50;10280923;28;20046;-53
2023/09/17 19:08:10;;;;;;;40.97;26.40;;;;;;;18.59;95.31;98221.13;10281777;28;20041;-52
2023/09/17 19:13:09;;;;;;;40.55;26.17;;;;;;;18.53;94.99;98219.53;10281122;28;20109;-52
2023/09/17 19:18:09;;;;;;;38.97;25.40;;;;;;;18.34;94.93;98192.88;10280113;28;20034;-53
2023/09/17 19:23:08;;;;;;;38.67;22.88;;;;;;;18.39;95.06;98216.41;10281470;28;20464;-51
2023/09/17 19:28:09;;;;;;;36.60;23.52;;;;;;;18.35;94.93;98225.25;10278085;28;20404;-51
2023/09/17 19:33:08;;;;;;;47.30;27.88;;;;;;;18.30;95.02;98221.88;10279873;28;20311;-52
2023/09/17 19:38:07;;;;;;;47.08;26.75;;;;;;;18.20;95.25;98213.38;10280338;28;20300;-52
2023/09/17 19:43:06;;;;;;;39.83;24.63;;;;;;;17.80;97.99;98219.56;10274693;28;20524;-52
2023/09/17 19:48:05;;;;;;;41.10;25.23;;;;;;;17.70;98.15;98220.63;10278686;28;20661;-51
2023/09/17 19:53:04;;;;;;;39.10;25.58;;;;;;;17.74;97.21;98236.25;10282855;28;20078;-52
2023/09/17 19:58:04;;;;;;;38.95;23.02;;;;;;;17.69;96.87;98230.25;10275741;28;20556;-54
2023/09/17 20:03:05;;;;;;;38.38;24.10;;;;;;;17.62;96.71;98231.28;10259883;28;20165;-51
2023/09/17 20:08:07;;;;;;;41.65;25.92;;;;;;;17.54;96.57;98222.69;10276708;28;20073;-53
2023/09/17 20:13:06;;;;;;;47.00;27.00;;;;;;;17.52;96.50;98219.28;10278956;28;20101;-51
2023/09/17 20:18:05;;;;;;;45.50;28.02;;;;;;;17.30;96.61;98192.63;10275050;28;20125;-51
2023/09/17 20:23:04;;;;;;;46.17;27.33;;;;;;;17.44;96.50;98215.94;10283616;28;20112;-52
2023/09/17 20:28:08;;;;;;;47.70;26.27;;;;;;;17.06;96.27;98158.13;10287943;28;20101;-50
2023/09/17 20:33:07;;;;;;;54.60;30.25;;;;;;;17.34;96.25;98216.13;10286744;28;20073;-52
2023/09/17 20:38:06;;;;;;;53.25;32.75;;;;;;;17.27;96.64;98217.16;10285802;28;20353;-52
2023/09/17 20:43:07;;;;;;;61.85;34.10;;;;;;;17.21;96.92;98198.91;10287879;28;20044;-52
2023/09/17 20:48:06;;;;;;;97.65;58.65;;;;;;;16.79;99.07;98209.31;10284862;28;20549;-54
2023/09/17 20:53:05;;;;;;;83.72;49.92;;;;;;;16.61;100.00;98207.06;10285412;28;20504;-51
2023/09/17 20:58:04;;;;;;;72.43;44.97;;;;;;;16.65;99.50;98203.47;10283001;28;20524;-52
2023/09/17 21:03:03;;;;;;;74.75;30.88;;;;;;;16.66;99.60;98215.69;10286225;28;20129;-49
2023/09/17 21:08:03;;;;;;;62.05;33.47;;;;;;;16.60;99.42;98205.31;10285703;28;20064;-49
2023/09/17 21:13:02;;;;;;;68.20;35.95;;;;;;;16.59;98.95;98209.69;10286051;28;20480;-51
2023/09/17 21:18:00;;;;;;;59.47;34.33;;;;;;;16.55;98.92;98188.81;10284069;28;20069;-49
2023/09/17 21:23:00;;;;;;;69.20;38.10;;;;;;;16.23;98.82;98135.22;10284142;28;20133;-51
2023/09/17 21:27:59;;;;;;;74.75;40.40;;;;;;;16.75;99.06;98191.94;10284419;28;20073;-51
2023/09/17 21:32:58;;;;;;;95.68;42.50;;;;;;;16.80;99.80;98194.47;10283428;28;20040;-50
2023/09/17 21:37:57;;;;;;;177.45;43.75;;;;;;;16.82;100.00;98188.34;10283835;28;20060;-51
2023/09/17 21:42:56;;;;;;;108.45;41.58;;;;;;;16.79;100.00;98201.44;10285122;28;21276;-51
2023/09/17 21:47:54;;;;;;;87.57;38.95;;;;;;;16.87;100.00;98191.72;10284632;28;20033;-51
2023/09/17 21:52:53;;;;;;;92.70;39.33;;;;;;;17.00;100.00;98186.25;10284678;28;20441;-52
2023/09/17 21:57:52;;;;;;;77.32;38.45;;;;;;;17.08;100.00;98181.72;10283971;28;20406;-50
2023/09/17 22:02:52;;;;;;;77.97;37.55;;;;;;;17.18;100.00;98196.34;10283760;28;20053;-51
2023/09/17 22:07:51;;;;;;;72.53;38.60;;;;;;;17.19;100.00;98186.72;10280347;28;20152;-49
2023/09/17 22:12:50;;;;;;;76.07;40.80;;;;;;;17.27;100.00;98185.69;10279679;28;20109;-50
2023/09/17 22:17:49;;;;;;;87.18;43.40;;;;;;;17.31;100.00;98182.09;10276976;28;20137;-51
2023/09/17 22:22:48;;;;;;;78.38;41.45;;;;;;;17.28;100.00;98155.91;10280214;28;20120;-52
2023/09/17 22:27:47;;;;;;;75.45;39.20;;;;;;;17.49;99.35;98172.09;10282232;28;20153;-51
2023/09/17 22:32:47;;;;;;;78.80;40.78;;;;;;;17.49;99.06;98174.72;10283746;28;20037;-49
2023/09/17 22:37:46;;;;;;;85.90;42.35;;;;;;;17.48;98.64;98163.38;10282555;28;20073;-51
2023/09/17 22:42:45;;;;;;;82.40;40.40;;;;;;;17.44;98.34;98151.19;10283063;28;20141;-51
2023/09/17 22:47:44;;;;;;;82.32;40.75;;;;;;;17.29;98.38;98136.69;10283319;28;20121;-51
2023/09/17 22:52:43;;;;;;;79.07;40.92;;;;;;;17.45;98.82;98157.31;10284386;28;20032;-51
2023/09/17 22:57:42;;;;;;;89.30;36.03;;;;;;;17.44;97.72;98147.72;10285926;28;20116;-51
2023/09/17 23:02:41;;;;;;;71.00;33.13;;;;;;;17.21;98.19;98153.47;10280698;28;20045;-49
2023/09/17 23:07:40;;;;;;;58.10;26.77;;;;;;;16.91;97.92;98151.47;10282632;28;20038;-51
2023/09/17 23:12:39;;;;;;;;;;;;;;;16.66;98.15;98148.41;10265047;28;20528;-51
2023/09/17 23:17:38;;;;;;;79.57;28.37;;;;;;;16.58;98.52;98141.59;10282265;28;19925;-51
2023/09/17 23:22:37;;;;;;;62.83;28.65;;;;;;;16.63;99.33;98140.63;10276448;28;20085;-51
2023/09/17 23:27:36;;;;;;;63.55;30.67;;;;;;;16.73;99.32;98138.69;10276828;28;20681;-51
2023/09/17 23:32:35;;;;;;;64.20;30.10;;;;;;;16.83;99.43;98137.63;10275278;28;20708;-51
2023/09/17 23:37:34;;;;;;;;;;;;;;;16.92;98.97;98137.44;10275436;28;20773;-51
2023/09/17 23:42:33;;;;;;;71.77;33.40;;;;;;;17.03;98.69;98133.75;10282002;28;19961;-52
2023/09/17 23:47:32;;;;;;;71.05;32.17;;;;;;;16.99;99.13;98130.31;10266041;28;20077;-51
2023/09/17 23:52:31;;;;;;;86.75;31.13;;;;;;;16.99;98.92;98145.19;10283584;28;20041;-51
2023/09/17 23:57:30;;;;;;;99.45;33.58;;;;;;;16.80;99.89;98142.91;10286014;28;20068;-51
